»·PEaware :: DAL9655 KOTH-KPDX

DAL9655 :: KOTH-KPDX

FLIGHT INFORMATION

Flight Status: Arrived
Operator:
Delta Air Lines
More flights by this operator :: More flights under this callsign
Pilot: Kevin M. (7)
Aircraft: BOEING 737-800
(B738)
More flights by this aircraft type
Origin: KOTH North Bend Mun
United States
Destination: KPDX Portland Intl
United States
More flights between these airports :: More routes between these airports
Route: OTH7 GAMMA TMBRS TMBRS2
File this flight plan on PilotEdge
Remarks:
Altitude:
(Current/Filed)
19,000ft
Speed:
(Current/Filed)
468kts
Departed: 12-Nov-20 08:42 AM
Arrived: 12-Nov-20 09:17 AM
Distance/Time
Traveled:
148nm/0:34
Distance/Time
To Go:
Arrived

Flight Plot

Page will automatically refresh every two minutes.

Flight plan parsing failed; only flown route is shown


Map Options




Map Legend


Flown Route
Filed Route
Departure Airport
Arrival Airport
Navaid (VOR, NDB)
Fix

Horizontal Profiles

Position Reports

Time Latitude Longitude Heading Altitude Ground
Speed
12-Nov-20 08:29 43.415914 -124.245804 330 32ft 0kts
12-Nov-20 08:30 43.415914 -124.245804 330 32ft 0kts
12-Nov-20 08:31 43.415914 -124.245804 330 32ft 0kts
12-Nov-20 08:32 43.415914 -124.245804 330 32ft 0kts
12-Nov-20 08:33 43.415914 -124.245804 330 32ft 0kts
12-Nov-20 08:34 43.415915 -124.245804 330 32ft 0kts
12-Nov-20 08:35 43.415915 -124.245804 330 32ft 0kts
12-Nov-20 08:36 43.416251 -124.245991 339 32ft 4kts
12-Nov-20 08:37 43.417967 -124.246182 329 27ft 15kts
12-Nov-20 08:38 43.420537 -124.243351 58 16ft 19kts
12-Nov-20 08:39 43.421721 -124.240627 27 14ft 0kts
12-Nov-20 08:40 43.421992 -124.240600 347 14ft 10kts
12-Nov-20 08:41 43.416130 -124.257239 238 291ft 160kts
12-Nov-20 08:42 43.433988 -124.316809 340 3379ft 255kts
12-Nov-20 08:43 43.485958 -124.266694 85 7191ft 300kts
12-Nov-20 08:44 43.451806 -124.171146 124 11587ft 307kts
12-Nov-20 08:45 43.485227 -124.071128 11 14274ft 361kts
12-Nov-20 08:46 43.585231 -124.102081 329 15290ft 359kts
12-Nov-20 08:47 43.676577 -124.157684 354 16306ft 374kts
12-Nov-20 08:48 43.773536 -124.101929 39 17339ft 399kts
12-Nov-20 08:49 43.854370 -123.995014 41 18340ft 406kts
12-Nov-20 08:50 43.941524 -123.877402 41 19142ft 454kts
12-Nov-20 08:51 44.032005 -123.755138 41 19153ft 453kts
12-Nov-20 08:52 44.122110 -123.632679 41 19162ft 454kts
12-Nov-20 08:53 44.212169 -123.509674 41 19169ft 453kts
12-Nov-20 08:54 44.302243 -123.386080 41 19175ft 453kts
12-Nov-20 08:55 44.391817 -123.262347 42 19170ft 454kts
12-Nov-20 08:56 44.481627 -123.137674 42 19172ft 454kts
12-Nov-20 08:57 44.571114 -123.013402 42 19168ft 453kts
12-Nov-20 08:58 44.659064 -122.890155 42 18039ft 420kts
12-Nov-20 08:59 44.741017 -122.774539 42 16149ft 396kts
12-Nov-20 09:00 44.822626 -122.692426 12 14451ft 338kts
12-Nov-20 09:01 44.910473 -122.677357 359 12759ft 308kts
12-Nov-20 09:02 44.994092 -122.668948 359 11101ft 293kts
12-Nov-20 09:03 45.072892 -122.660968 0 10280ft 281kts
12-Nov-20 09:04 45.149982 -122.653128 0 9183ft 274kts
12-Nov-20 09:05 45.225142 -122.645463 1 8090ft 268kts
12-Nov-20 09:06 45.295386 -122.667957 337 7058ft 257kts
12-Nov-20 09:07 45.362517 -122.704949 337 7001ft 258kts
12-Nov-20 09:08 45.427989 -122.740878 338 6063ft 241kts
12-Nov-20 09:09 45.488657 -122.774245 338 5107ft 228kts
12-Nov-20 09:10 45.544543 -122.804960 338 4991ft 212kts
12-Nov-20 09:11 45.614373 -122.792052 20 2786ft 262kts
12-Nov-20 09:12 45.640318 -122.734209 133 2250ft 174kts
12-Nov-20 09:13 45.619836 -122.685284 115 1085ft 130kts
12-Nov-20 09:14 45.610099 -122.636337 104 633ft 130kts
12-Nov-20 09:15 45.592973 -122.590923 118 38ft 126kts
12-Nov-20 09:16 45.586338 -122.576322 213 30ft 0kts
12-Nov-20 09:17 45.588650 -122.583068 299 30ft 29kts
12-Nov-20 09:18 45.591259 -122.591956 300 30ft 22kts
12-Nov-20 09:19 45.591153 -122.594070 208 30ft 0kts

Navigation Log

Ident Type
Flight plan parsing failed, navigation log unavailable